sensor_id;sensor_type;location;lat;lon;timestamp;temperature;humidity
4374;DHT22;2201;51.100;6.814;2023-04-08T00:01:31;9.40;98.20
4374;DHT22;2201;51.100;6.814;2023-04-08T00:03:57;9.40;98.20
4374;DHT22;2201;51.100;6.814;2023-04-08T00:06:25;9.40;98.20
4374;DHT22;2201;51.100;6.814;2023-04-08T00:08:52;9.40;98.20
4374;DHT22;2201;51.100;6.814;2023-04-08T00:11:19;9.40;98.20
4374;DHT22;2201;51.100;6.814;2023-04-08T00:13:46;9.40;98.20
4374;DHT22;2201;51.100;6.814;2023-04-08T00:16:13;9.40;98.20
4374;DHT22;2201;51.100;6.814;2023-04-08T00:18:40;9.40;98.20
4374;DHT22;2201;51.100;6.814;2023-04-08T00:21:07;9.40;98.20
4374;DHT22;2201;51.100;6.814;2023-04-08T00:23:35;9.40;98.20
4374;DHT22;2201;51.100;6.814;2023-04-08T00:26:02;9.40;98.20
4374;DHT22;2201;51.100;6.814;2023-04-08T00:28:31;9.40;98.20
4374;DHT22;2201;51.100;6.814;2023-04-08T00:30:58;9.40;98.20
4374;DHT22;2201;51.100;6.814;2023-04-08T00:33:25;9.40;98.20
4374;DHT22;2201;51.100;6.814;2023-04-08T00:35:51;9.40;98.20
4374;DHT22;2201;51.100;6.814;2023-04-08T00:38:18;9.40;98.20
4374;DHT22;2201;51.100;6.814;2023-04-08T00:40:46;9.30;98.20
4374;DHT22;2201;51.100;6.814;2023-04-08T00:43:13;9.30;98.20
4374;DHT22;2201;51.100;6.814;2023-04-08T00:45:41;9.30;98.20
4374;DHT22;2201;51.100;6.814;2023-04-08T00:48:07;9.30;98.20
4374;DHT22;2201;51.100;6.814;2023-04-08T00:53:07;9.30;98.20
4374;DHT22;2201;51.100;6.814;2023-04-08T00:55:34;9.30;98.20
4374;DHT22;2201;51.100;6.814;2023-04-08T00:58:02;9.40;98.20
4374;DHT22;2201;51.100;6.814;2023-04-08T01:00:30;9.30;98.20
4374;DHT22;2201;51.100;6.814;2023-04-08T01:03:01;9.30;98.20
4374;DHT22;2201;51.100;6.814;2023-04-08T01:05:38;9.30;98.20
4374;DHT22;2201;51.100;6.814;2023-04-08T01:08:06;9.40;98.20
4374;DHT22;2201;51.100;6.814;2023-04-08T01:10:36;9.30;98.20
4374;DHT22;2201;51.100;6.814;2023-04-08T01:13:08;9.30;98.20
4374;DHT22;2201;51.100;6.814;2023-04-08T01:15:37;9.30;98.20
4374;DHT22;2201;51.100;6.814;2023-04-08T01:18:07;9.30;98.20
4374;DHT22;2201;51.100;6.814;2023-04-08T01:20:34;9.30;98.20
4374;DHT22;2201;51.100;6.814;2023-04-08T01:23:06;9.30;98.20
4374;DHT22;2201;51.100;6.814;2023-04-08T01:25:35;9.30;98.20
4374;DHT22;2201;51.100;6.814;2023-04-08T01:28:07;9.30;98.20
4374;DHT22;2201;51.100;6.814;2023-04-08T01:30:37;9.30;98.20
4374;DHT22;2201;51.100;6.814;2023-04-08T01:33:05;9.30;98.20
4374;DHT22;2201;51.100;6.814;2023-04-08T01:35:33;9.30;98.20
4374;DHT22;2201;51.100;6.814;2023-04-08T01:38:01;9.30;98.20
4374;DHT22;2201;51.100;6.814;2023-04-08T01:40:29;9.30;98.20
4374;DHT22;2201;51.100;6.814;2023-04-08T01:42:57;9.30;98.20
4374;DHT22;2201;51.100;6.814;2023-04-08T01:45:26;9.30;98.20
4374;DHT22;2201;51.100;6.814;2023-04-08T01:47:54;9.30;98.20
4374;DHT22;2201;51.100;6.814;2023-04-08T01:50:22;9.30;98.20
4374;DHT22;2201;51.100;6.814;2023-04-08T01:52:50;9.30;98.20
4374;DHT22;2201;51.100;6.814;2023-04-08T01:55:18;9.30;98.20
4374;DHT22;2201;51.100;6.814;2023-04-08T01:57:48;9.30;98.20
4374;DHT22;2201;51.100;6.814;2023-04-08T02:00:19;9.30;98.20
4374;DHT22;2201;51.100;6.814;2023-04-08T02:02:48;9.30;98.20
4374;DHT22;2201;51.100;6.814;2023-04-08T02:05:15;9.30;98.20
4374;DHT22;2201;51.100;6.814;2023-04-08T02:07:42;9.30;98.20
4374;DHT22;2201;51.100;6.814;2023-04-08T02:10:10;9.30;98.20
4374;DHT22;2201;51.100;6.814;2023-04-08T02:12:37;9.30;98.20
4374;DHT22;2201;51.100;6.814;2023-04-08T02:15:05;9.30;98.20
4374;DHT22;2201;51.100;6.814;2023-04-08T02:17:36;9.30;98.20
4374;DHT22;2201;51.100;6.814;2023-04-08T02:20:09;9.30;98.20
4374;DHT22;2201;51.100;6.814;2023-04-08T02:22:43;9.30;98.20
4374;DHT22;2201;51.100;6.814;2023-04-08T02:25:15;9.30;98.20
4374;DHT22;2201;51.100;6.814;2023-04-08T02:27:44;9.30;98.20
4374;DHT22;2201;51.100;6.814;2023-04-08T02:30:12;9.30;98.20
4374;DHT22;2201;51.100;6.814;2023-04-08T02:32:40;9.30;98.20
4374;DHT22;2201;51.100;6.814;2023-04-08T02:35:10;9.30;98.20
4374;DHT22;2201;51.100;6.814;2023-04-08T02:37:38;9.30;98.20
4374;DHT22;2201;51.100;6.814;2023-04-08T02:40:26;9.30;98.20
4374;DHT22;2201;51.100;6.814;2023-04-08T02:42:54;9.30;98.20
4374;DHT22;2201;51.100;6.814;2023-04-08T02:45:21;9.30;98.20
4374;DHT22;2201;51.100;6.814;2023-04-08T02:47:48;9.30;98.20
4374;DHT22;2201;51.100;6.814;2023-04-08T02:50:16;9.30;98.20
4374;DHT22;2201;51.100;6.814;2023-04-08T02:52:42;9.30;98.20
4374;DHT22;2201;51.100;6.814;2023-04-08T02:55:10;9.30;98.20
4374;DHT22;2201;51.100;6.814;2023-04-08T02:57:37;9.30;98.20
4374;DHT22;2201;51.100;6.814;2023-04-08T03:00:05;9.30;98.20
4374;DHT22;2201;51.100;6.814;2023-04-08T03:02:32;9.30;98.20
4374;DHT22;2201;51.100;6.814;2023-04-08T03:04:59;9.30;98.20
4374;DHT22;2201;51.100;6.814;2023-04-08T03:07:27;9.30;98.20
4374;DHT22;2201;51.100;6.814;2023-04-08T03:09:54;9.30;98.20
4374;DHT22;2201;51.100;6.814;2023-04-08T03:12:21;9.30;98.20
4374;DHT22;2201;51.100;6.814;2023-04-08T03:14:48;9.30;98.20
4374;DHT22;2201;51.100;6.814;2023-04-08T03:17:15;9.30;98.20
4374;DHT22;2201;51.100;6.814;2023-04-08T03:19:42;9.30;98.20
4374;DHT22;2201;51.100;6.814;2023-04-08T03:22:09;9.30;98.20
4374;DHT22;2201;51.100;6.814;2023-04-08T03:24:37;9.30;98.20
4374;DHT22;2201;51.100;6.814;2023-04-08T03:27:04;9.30;98.20
4374;DHT22;2201;51.100;6.814;2023-04-08T03:29:31;9.30;98.20
4374;DHT22;2201;51.100;6.814;2023-04-08T03:31:57;9.30;98.20
4374;DHT22;2201;51.100;6.814;2023-04-08T03:34:24;9.30;98.20
4374;DHT22;2201;51.100;6.814;2023-04-08T03:36:51;9.30;98.20
4374;DHT22;2201;51.100;6.814;2023-04-08T03:39:18;9.30;98.20
4374;DHT22;2201;51.100;6.814;2023-04-08T03:41:46;9.30;98.20
4374;DHT22;2201;51.100;6.814;2023-04-08T03:44:13;9.30;98.20
4374;DHT22;2201;51.100;6.814;2023-04-08T03:46:40;9.30;98.20
4374;DHT22;2201;51.100;6.814;2023-04-08T03:49:07;9.30;98.20
4374;DHT22;2201;51.100;6.814;2023-04-08T03:51:33;9.30;98.20
4374;DHT22;2201;51.100;6.814;2023-04-08T03:54:00;9.30;98.20
4374;DHT22;2201;51.100;6.814;2023-04-08T03:56:27;9.30;98.20
4374;DHT22;2201;51.100;6.814;2023-04-08T03:58:55;9.30;98.20
4374;DHT22;2201;51.100;6.814;2023-04-08T04:01:22;9.30;98.20
4374;DHT22;2201;51.100;6.814;2023-04-08T04:03:48;9.20;98.20
4374;DHT22;2201;51.100;6.814;2023-04-08T04:06:15;9.20;98.20
4374;DHT22;2201;51.100;6.814;2023-04-08T04:08:42;9.20;98.20
4374;DHT22;2201;51.100;6.814;2023-04-08T04:11:08;9.30;98.20
4374;DHT22;2201;51.100;6.814;2023-04-08T04:13:35;9.30;98.20
4374;DHT22;2201;51.100;6.814;2023-04-08T04:16:04;9.30;98.20
4374;DHT22;2201;51.100;6.814;2023-04-08T04:18:31;9.30;98.20
4374;DHT22;2201;51.100;6.814;2023-04-08T04:20:57;9.30;98.20
4374;DHT22;2201;51.100;6.814;2023-04-08T04:23:24;9.30;98.20
4374;DHT22;2201;51.100;6.814;2023-04-08T04:25:51;9.30;98.20
4374;DHT22;2201;51.100;6.814;2023-04-08T04:28:17;9.30;98.20
4374;DHT22;2201;51.100;6.814;2023-04-08T04:30:44;9.30;98.20
4374;DHT22;2201;51.100;6.814;2023-04-08T04:33:12;9.30;98.20
4374;DHT22;2201;51.100;6.814;2023-04-08T04:35:39;9.30;98.20
4374;DHT22;2201;51.100;6.814;2023-04-08T04:38:06;9.30;98.20
4374;DHT22;2201;51.100;6.814;2023-04-08T04:40:37;9.30;98.20
4374;DHT22;2201;51.100;6.814;2023-04-08T04:43:04;9.20;98.20
4374;DHT22;2201;51.100;6.814;2023-04-08T04:45:31;9.20;98.20
4374;DHT22;2201;51.100;6.814;2023-04-08T04:47:57;9.10;98.20
4374;DHT22;2201;51.100;6.814;2023-04-08T04:50:26;9.10;98.20
4374;DHT22;2201;51.100;6.814;2023-04-08T04:52:53;9.00;98.20
4374;DHT22;2201;51.100;6.814;2023-04-08T04:55:19;8.90;98.20
4374;DHT22;2201;51.100;6.814;2023-04-08T04:57:47;8.80;98.20
4374;DHT22;2201;51.100;6.814;2023-04-08T05:00:14;8.80;98.20
4374;DHT22;2201;51.100;6.814;2023-04-08T05:02:41;8.70;98.20
4374;DHT22;2201;51.100;6.814;2023-04-08T05:05:08;8.70;98.20
4374;DHT22;2201;51.100;6.814;2023-04-08T05:07:37;8.60;98.20
4374;DHT22;2201;51.100;6.814;2023-04-08T05:10:04;8.60;98.20
4374;DHT22;2201;51.100;6.814;2023-04-08T05:12:31;8.60;98.20
4374;DHT22;2201;51.100;6.814;2023-04-08T05:14:58;8.60;98.20
4374;DHT22;2201;51.100;6.814;2023-04-08T05:17:25;8.60;98.20
4374;DHT22;2201;51.100;6.814;2023-04-08T05:19:52;8.70;98.20
4374;DHT22;2201;51.100;6.814;2023-04-08T05:22:19;8.70;98.20
4374;DHT22;2201;51.100;6.814;2023-04-08T05:24:47;8.70;98.20
4374;DHT22;2201;51.100;6.814;2023-04-08T05:27:13;8.70;98.20
4374;DHT22;2201;51.100;6.814;2023-04-08T05:29:40;8.70;98.20
4374;DHT22;2201;51.100;6.814;2023-04-08T05:32:07;8.70;98.20
4374;DHT22;2201;51.100;6.814;2023-04-08T05:34:33;8.70;98.20
4374;DHT22;2201;51.100;6.814;2023-04-08T05:37:00;8.70;98.20
4374;DHT22;2201;51.100;6.814;2023-04-08T05:39:27;8.70;98.20
4374;DHT22;2201;51.100;6.814;2023-04-08T05:41:55;8.60;98.20
4374;DHT22;2201;51.100;6.814;2023-04-08T05:44:22;8.60;98.20
4374;DHT22;2201;51.100;6.814;2023-04-08T05:46:49;8.60;98.20
4374;DHT22;2201;51.100;6.814;2023-04-08T05:49:15;8.60;98.20
4374;DHT22;2201;51.100;6.814;2023-04-08T05:51:42;8.60;98.20
4374;DHT22;2201;51.100;6.814;2023-04-08T05:54:09;8.60;98.20
4374;DHT22;2201;51.100;6.814;2023-04-08T05:56:36;8.60;98.20
4374;DHT22;2201;51.100;6.814;2023-04-08T05:59:04;8.60;98.20
4374;DHT22;2201;51.100;6.814;2023-04-08T06:01:31;8.60;98.20
4374;DHT22;2201;51.100;6.814;2023-04-08T06:03:57;8.60;98.20
4374;DHT22;2201;51.100;6.814;2023-04-08T06:06:24;8.60;98.20
4374;DHT22;2201;51.100;6.814;2023-04-08T06:08:51;8.60;98.20
4374;DHT22;2201;51.100;6.814;2023-04-08T06:11:18;8.70;98.20
4374;DHT22;2201;51.100;6.814;2023-04-08T06:13:44;8.70;98.20
4374;DHT22;2201;51.100;6.814;2023-04-08T06:16:14;8.80;98.20
4374;DHT22;2201;51.100;6.814;2023-04-08T06:18:41;8.80;98.20
4374;DHT22;2201;51.100;6.814;2023-04-08T06:21:09;8.90;98.20
4374;DHT22;2201;51.100;6.814;2023-04-08T06:23:35;9.10;98.20
4374;DHT22;2201;51.100;6.814;2023-04-08T06:26:02;9.20;98.20
4374;DHT22;2201;51.100;6.814;2023-04-08T06:28:29;9.40;98.20
4374;DHT22;2201;51.100;6.814;2023-04-08T06:30:56;9.60;98.20
4374;DHT22;2201;51.100;6.814;2023-04-08T06:33:24;9.80;98.20
4374;DHT22;2201;51.100;6.814;2023-04-08T06:35:51;9.90;98.20
4374;DHT22;2201;51.100;6.814;2023-04-08T06:38:26;10.00;98.20
4374;DHT22;2201;51.100;6.814;2023-04-08T06:40:53;10.20;98.20
4374;DHT22;2201;51.100;6.814;2023-04-08T06:43:21;10.40;98.20
4374;DHT22;2201;51.100;6.814;2023-04-08T06:45:48;10.50;98.20
4374;DHT22;2201;51.100;6.814;2023-04-08T06:48:15;10.60;98.20
4374;DHT22;2201;51.100;6.814;2023-04-08T06:50:43;10.70;98.20
4374;DHT22;2201;51.100;6.814;2023-04-08T06:53:10;10.90;98.20
4374;DHT22;2201;51.100;6.814;2023-04-08T06:55:36;11.10;98.20
4374;DHT22;2201;51.100;6.814;2023-04-08T06:58:03;11.30;98.20
4374;DHT22;2201;51.100;6.814;2023-04-08T07:00:30;11.50;98.20
4374;DHT22;2201;51.100;6.814;2023-04-08T07:02:56;11.60;98.20
4374;DHT22;2201;51.100;6.814;2023-04-08T07:05:23;11.60;98.20
4374;DHT22;2201;51.100;6.814;2023-04-08T07:07:51;11.60;98.20
4374;DHT22;2201;51.100;6.814;2023-04-08T07:10:18;11.50;98.20
4374;DHT22;2201;51.100;6.814;2023-04-08T07:12:45;11.50;98.20
4374;DHT22;2201;51.100;6.814;2023-04-08T07:15:12;11.40;98.20
4374;DHT22;2201;51.100;6.814;2023-04-08T07:17:39;11.50;98.20
4374;DHT22;2201;51.100;6.814;2023-04-08T07:20:06;11.50;98.20
4374;DHT22;2201;51.100;6.814;2023-04-08T07:22:33;11.50;98.20
4374;DHT22;2201;51.100;6.814;2023-04-08T07:25:01;11.50;98.20
4374;DHT22;2201;51.100;6.814;2023-04-08T07:27:28;11.60;98.20
4374;DHT22;2201;51.100;6.814;2023-04-08T07:29:55;11.50;98.20
4374;DHT22;2201;51.100;6.814;2023-04-08T07:32:22;11.40;98.20
4374;DHT22;2201;51.100;6.814;2023-04-08T07:34:49;11.30;98.20
4374;DHT22;2201;51.100;6.814;2023-04-08T07:37:16;11.30;98.20
4374;DHT22;2201;51.100;6.814;2023-04-08T07:39:43;11.30;98.20
4374;DHT22;2201;51.100;6.814;2023-04-08T07:42:11;11.30;98.20
4374;DHT22;2201;51.100;6.814;2023-04-08T07:44:38;11.30;98.20
4374;DHT22;2201;51.100;6.814;2023-04-08T07:47:05;11.30;98.20
4374;DHT22;2201;51.100;6.814;2023-04-08T07:49:32;11.30;98.20
4374;DHT22;2201;51.100;6.814;2023-04-08T07:51:58;11.30;98.20
4374;DHT22;2201;51.100;6.814;2023-04-08T07:54:25;11.30;98.20
4374;DHT22;2201;51.100;6.814;2023-04-08T07:56:52;11.30;98.20
4374;DHT22;2201;51.100;6.814;2023-04-08T07:59:20;11.40;98.20
4374;DHT22;2201;51.100;6.814;2023-04-08T08:01:47;11.40;98.20
4374;DHT22;2201;51.100;6.814;2023-04-08T08:04:14;11.50;98.20
4374;DHT22;2201;51.100;6.814;2023-04-08T08:06:40;11.40;98.20
4374;DHT22;2201;51.100;6.814;2023-04-08T08:09:07;11.40;98.20
4374;DHT22;2201;51.100;6.814;2023-04-08T08:11:34;11.40;98.20
4374;DHT22;2201;51.100;6.814;2023-04-08T08:14:01;11.40;98.20
4374;DHT22;2201;51.100;6.814;2023-04-08T08:16:30;11.50;98.20
4374;DHT22;2201;51.100;6.814;2023-04-08T08:18:58;11.60;98.20
4374;DHT22;2201;51.100;6.814;2023-04-08T08:21:25;11.60;98.20
4374;DHT22;2201;51.100;6.814;2023-04-08T08:23:52;11.80;98.20
4374;DHT22;2201;51.100;6.814;2023-04-08T08:26:21;11.90;98.20
4374;DHT22;2201;51.100;6.814;2023-04-08T08:28:48;12.00;98.20
4374;DHT22;2201;51.100;6.814;2023-04-08T08:31:14;12.10;98.20
4374;DHT22;2201;51.100;6.814;2023-04-08T08:33:43;12.10;98.20
4374;DHT22;2201;51.100;6.814;2023-04-08T08:36:10;12.00;98.20
4374;DHT22;2201;51.100;6.814;2023-04-08T08:38:37;12.00;98.20
4374;DHT22;2201;51.100;6.814;2023-04-08T08:41:04;11.90;98.20
4374;DHT22;2201;51.100;6.814;2023-04-08T08:43:31;11.90;98.20
4374;DHT22;2201;51.100;6.814;2023-04-08T08:45:59;11.80;98.20
4374;DHT22;2201;51.100;6.814;2023-04-08T08:48:26;11.80;98.20
4374;DHT22;2201;51.100;6.814;2023-04-08T08:50:54;11.80;98.20
4374;DHT22;2201;51.100;6.814;2023-04-08T08:53:28;11.90;98.20
4374;DHT22;2201;51.100;6.814;2023-04-08T08:55:55;11.90;98.20
4374;DHT22;2201;51.100;6.814;2023-04-08T08:58:25;11.90;98.20
4374;DHT22;2201;51.100;6.814;2023-04-08T09:00:52;11.80;98.20
4374;DHT22;2201;51.100;6.814;2023-04-08T09:03:20;11.90;98.20
4374;DHT22;2201;51.100;6.814;2023-04-08T09:05:49;11.90;98.20
4374;DHT22;2201;51.100;6.814;2023-04-08T09:08:27;11.80;98.20
4374;DHT22;2201;51.100;6.814;2023-04-08T09:10:55;11.80;98.20
4374;DHT22;2201;51.100;6.814;2023-04-08T09:13:22;12.00;98.20
4374;DHT22;2201;51.100;6.814;2023-04-08T09:16:04;12.00;98.20
4374;DHT22;2201;51.100;6.814;2023-04-08T09:18:32;12.10;98.20
4374;DHT22;2201;51.100;6.814;2023-04-08T09:20:59;12.10;98.20
4374;DHT22;2201;51.100;6.814;2023-04-08T09:23:43;12.10;98.20
4374;DHT22;2201;51.100;6.814;2023-04-08T09:26:11;12.20;98.20
4374;DHT22;2201;51.100;6.814;2023-04-08T09:28:40;12.10;98.20
4374;DHT22;2201;51.100;6.814;2023-04-08T09:31:21;12.10;98.20
4374;DHT22;2201;51.100;6.814;2023-04-08T09:33:49;12.10;98.20
4374;DHT22;2201;51.100;6.814;2023-04-08T09:36:16;12.10;98.20
4374;DHT22;2201;51.100;6.814;2023-04-08T09:38:45;12.10;98.20
4374;DHT22;2201;51.100;6.814;2023-04-08T09:41:13;12.00;98.20
4374;DHT22;2201;51.100;6.814;2023-04-08T09:43:42;12.00;98.20
4374;DHT22;2201;51.100;6.814;2023-04-08T09:46:14;12.00;98.20
4374;DHT22;2201;51.100;6.814;2023-04-08T09:48:48;12.00;98.20
4374;DHT22;2201;51.100;6.814;2023-04-08T09:51:18;11.90;98.20
4374;DHT22;2201;51.100;6.814;2023-04-08T09:53:49;12.00;98.20
4374;DHT22;2201;51.100;6.814;2023-04-08T09:56:19;12.10;98.20
4374;DHT22;2201;51.100;6.814;2023-04-08T09:58:51;12.10;98.20
4374;DHT22;2201;51.100;6.814;2023-04-08T10:01:25;12.20;98.20
4374;DHT22;2201;51.100;6.814;2023-04-08T10:03:54;12.30;98.20
4374;DHT22;2201;51.100;6.814;2023-04-08T10:06:27;12.30;98.20
4374;DHT22;2201;51.100;6.814;2023-04-08T10:08:57;12.40;98.20
4374;DHT22;2201;51.100;6.814;2023-04-08T10:11:24;12.50;98.20
4374;DHT22;2201;51.100;6.814;2023-04-08T10:13:51;12.50;98.20
4374;DHT22;2201;51.100;6.814;2023-04-08T10:16:20;12.50;98.20
4374;DHT22;2201;51.100;6.814;2023-04-08T10:18:47;12.50;98.20
4374;DHT22;2201;51.100;6.814;2023-04-08T10:21:36;12.50;98.20
4374;DHT22;2201;51.100;6.814;2023-04-08T10:24:09;12.50;98.20
4374;DHT22;2201;51.100;6.814;2023-04-08T10:26:38;12.50;98.20
4374;DHT22;2201;51.100;6.814;2023-04-08T10:32:28;12.40;98.20
4374;DHT22;2201;51.100;6.814;2023-04-08T10:34:55;12.20;98.20
4374;DHT22;2201;51.100;6.814;2023-04-08T10:37:22;12.30;98.20
4374;DHT22;2201;51.100;6.814;2023-04-08T10:39:53;12.30;98.20
4374;DHT22;2201;51.100;6.814;2023-04-08T10:42:26;12.40;98.20
4374;DHT22;2201;51.100;6.814;2023-04-08T10:44:53;12.40;98.20
4374;DHT22;2201;51.100;6.814;2023-04-08T10:47:24;12.40;98.20
4374;DHT22;2201;51.100;6.814;2023-04-08T10:49:51;12.40;98.20
4374;DHT22;2201;51.100;6.814;2023-04-08T10:52:18;12.30;98.20
4374;DHT22;2201;51.100;6.814;2023-04-08T10:54:46;12.40;98.20
4374;DHT22;2201;51.100;6.814;2023-04-08T10:57:22;12.40;98.20
4374;DHT22;2201;51.100;6.814;2023-04-08T10:59:49;12.50;98.20
4374;DHT22;2201;51.100;6.814;2023-04-08T11:02:15;12.60;98.20
4374;DHT22;2201;51.100;6.814;2023-04-08T11:04:46;12.80;98.20
4374;DHT22;2201;51.100;6.814;2023-04-08T11:07:13;12.80;98.20
4374;DHT22;2201;51.100;6.814;2023-04-08T11:09:40;12.90;98.20
4374;DHT22;2201;51.100;6.814;2023-04-08T11:12:08;12.90;98.20
4374;DHT22;2201;51.100;6.814;2023-04-08T11:14:36;12.90;98.20
4374;DHT22;2201;51.100;6.814;2023-04-08T11:17:05;12.90;98.20
4374;DHT22;2201;51.100;6.814;2023-04-08T11:19:34;13.00;98.20
4374;DHT22;2201;51.100;6.814;2023-04-08T11:22:01;13.10;98.20
4374;DHT22;2201;51.100;6.814;2023-04-08T11:24:28;13.20;98.20
4374;DHT22;2201;51.100;6.814;2023-04-08T11:26:55;13.30;98.20
4374;DHT22;2201;51.100;6.814;2023-04-08T11:29:22;13.40;98.20
4374;DHT22;2201;51.100;6.814;2023-04-08T11:31:50;13.60;98.20
4374;DHT22;2201;51.100;6.814;2023-04-08T11:34:21;13.80;98.20
4374;DHT22;2201;51.100;6.814;2023-04-08T11:36:49;14.10;98.20
4374;DHT22;2201;51.100;6.814;2023-04-08T11:39:16;14.30;98.20
4374;DHT22;2201;51.100;6.814;2023-04-08T11:41:43;14.40;98.20
4374;DHT22;2201;51.100;6.814;2023-04-08T11:44:10;14.50;98.20
4374;DHT22;2201;51.100;6.814;2023-04-08T11:46:37;14.60;98.20
4374;DHT22;2201;51.100;6.814;2023-04-08T11:49:07;14.40;98.20
4374;DHT22;2201;51.100;6.814;2023-04-08T11:51:52;14.30;98.20
4374;DHT22;2201;51.100;6.814;2023-04-08T11:54:25;14.20;98.20
4374;DHT22;2201;51.100;6.814;2023-04-08T11:56:52;14.00;98.20
4374;DHT22;2201;51.100;6.814;2023-04-08T11:59:20;14.00;98.20
4374;DHT22;2201;51.100;6.814;2023-04-08T12:01:47;14.00;98.20
4374;DHT22;2201;51.100;6.814;2023-04-08T12:04:15;14.00;98.20
4374;DHT22;2201;51.100;6.814;2023-04-08T12:06:42;14.00;98.20
4374;DHT22;2201;51.100;6.814;2023-04-08T12:09:11;13.90;98.20
4374;DHT22;2201;51.100;6.814;2023-04-08T12:11:38;13.80;98.20
4374;DHT22;2201;51.100;6.814;2023-04-08T12:14:05;13.80;98.20
4374;DHT22;2201;51.100;6.814;2023-04-08T12:16:31;13.90;98.20
4374;DHT22;2201;51.100;6.814;2023-04-08T12:18:58;13.90;98.20
4374;DHT22;2201;51.100;6.814;2023-04-08T12:21:26;14.00;98.20
4374;DHT22;2201;51.100;6.814;2023-04-08T12:23:53;14.00;98.20
4374;DHT22;2201;51.100;6.814;2023-04-08T12:26:20;14.00;98.20
4374;DHT22;2201;51.100;6.814;2023-04-08T12:28:46;14.10;98.20
4374;DHT22;2201;51.100;6.814;2023-04-08T12:31:13;14.00;98.20
4374;DHT22;2201;51.100;6.814;2023-04-08T12:33:40;13.90;98.20
4374;DHT22;2201;51.100;6.814;2023-04-08T12:36:07;14.00;98.20
4374;DHT22;2201;51.100;6.814;2023-04-08T12:38:35;13.90;98.20
4374;DHT22;2201;51.100;6.814;2023-04-08T12:41:02;13.90;98.20
4374;DHT22;2201;51.100;6.814;2023-04-08T12:43:29;13.90;98.20
4374;DHT22;2201;51.100;6.814;2023-04-08T12:45:57;13.90;98.20
4374;DHT22;2201;51.100;6.814;2023-04-08T12:48:24;13.80;98.20
4374;DHT22;2201;51.100;6.814;2023-04-08T12:50:51;13.80;98.20
4374;DHT22;2201;51.100;6.814;2023-04-08T12:53:17;13.80;98.20
4374;DHT22;2201;51.100;6.814;2023-04-08T12:55:46;13.70;98.20
4374;DHT22;2201;51.100;6.814;2023-04-08T12:58:12;13.60;98.20
4374;DHT22;2201;51.100;6.814;2023-04-08T13:00:41;13.50;97.70
4374;DHT22;2201;51.100;6.814;2023-04-08T13:03:11;13.40;95.90
4374;DHT22;2201;51.100;6.814;2023-04-08T13:05:37;13.30;95.00
4374;DHT22;2201;51.100;6.814;2023-04-08T13:08:04;13.30;95.10
4374;DHT22;2201;51.100;6.814;2023-04-08T13:10:31;13.30;95.20
4374;DHT22;2201;51.100;6.814;2023-04-08T13:12:59;13.30;94.40
4374;DHT22;2201;51.100;6.814;2023-04-08T13:15:27;13.20;93.20
4374;DHT22;2201;51.100;6.814;2023-04-08T13:17:53;13.20;94.30
4374;DHT22;2201;51.100;6.814;2023-04-08T13:20:20;13.20;94.50
4374;DHT22;2201;51.100;6.814;2023-04-08T13:22:50;13.30;95.70
4374;DHT22;2201;51.100;6.814;2023-04-08T13:25:16;13.40;96.20
4374;DHT22;2201;51.100;6.814;2023-04-08T13:27:43;13.50;95.60
4374;DHT22;2201;51.100;6.814;2023-04-08T13:30:12;13.50;95.90
4374;DHT22;2201;51.100;6.814;2023-04-08T13:32:39;13.60;94.40
4374;DHT22;2201;51.100;6.814;2023-04-08T13:35:07;13.50;94.00
4374;DHT22;2201;51.100;6.814;2023-04-08T13:37:33;13.40;94.50
4374;DHT22;2201;51.100;6.814;2023-04-08T13:40:00;13.30;94.80
4374;DHT22;2201;51.100;6.814;2023-04-08T13:42:27;13.20;95.50
4374;DHT22;2201;51.100;6.814;2023-04-08T13:44:55;13.10;96.60
4374;DHT22;2201;51.100;6.814;2023-04-08T13:47:23;13.10;96.90
4374;DHT22;2201;51.100;6.814;2023-04-08T13:49:51;13.10;97.30
4374;DHT22;2201;51.100;6.814;2023-04-08T13:52:18;13.10;97.90
4374;DHT22;2201;51.100;6.814;2023-04-08T13:54:45;13.10;97.70
4374;DHT22;2201;51.100;6.814;2023-04-08T13:57:12;13.10;98.20
4374;DHT22;2201;51.100;6.814;2023-04-08T13:59:39;13.10;98.00
4374;DHT22;2201;51.100;6.814;2023-04-08T14:02:06;13.10;97.60
4374;DHT22;2201;51.100;6.814;2023-04-08T14:04:34;13.00;97.70
4374;DHT22;2201;51.100;6.814;2023-04-08T14:07:01;13.00;98.20
4374;DHT22;2201;51.100;6.814;2023-04-08T14:09:27;13.00;98.20
4374;DHT22;2201;51.100;6.814;2023-04-08T14:11:55;13.10;98.20
4374;DHT22;2201;51.100;6.814;2023-04-08T14:14:22;13.30;98.20
4374;DHT22;2201;51.100;6.814;2023-04-08T14:16:48;13.40;98.20
4374;DHT22;2201;51.100;6.814;2023-04-08T14:19:15;13.60;98.20
4374;DHT22;2201;51.100;6.814;2023-04-08T14:21:43;13.70;98.20
4374;DHT22;2201;51.100;6.814;2023-04-08T14:24:10;13.90;97.60
4374;DHT22;2201;51.100;6.814;2023-04-08T14:26:37;14.00;98.20
4374;DHT22;2201;51.100;6.814;2023-04-08T14:29:05;14.10;98.20
4374;DHT22;2201;51.100;6.814;2023-04-08T14:31:32;14.30;98.10
4374;DHT22;2201;51.100;6.814;2023-04-08T14:33:59;14.30;97.80
4374;DHT22;2201;51.100;6.814;2023-04-08T14:36:27;14.20;98.10
4374;DHT22;2201;51.100;6.814;2023-04-08T14:38:55;14.20;98.20
4374;DHT22;2201;51.100;6.814;2023-04-08T14:41:21;14.20;98.20
4374;DHT22;2201;51.100;6.814;2023-04-08T14:43:51;14.20;98.20
4374;DHT22;2201;51.100;6.814;2023-04-08T14:46:17;14.20;98.20
4374;DHT22;2201;51.100;6.814;2023-04-08T14:48:44;14.30;98.20
4374;DHT22;2201;51.100;6.814;2023-04-08T14:51:11;14.30;98.20
4374;DHT22;2201;51.100;6.814;2023-04-08T14:53:38;14.20;98.20
4374;DHT22;2201;51.100;6.814;2023-04-08T14:56:08;14.10;98.20
4374;DHT22;2201;51.100;6.814;2023-04-08T14:58:34;14.00;98.20
4374;DHT22;2201;51.100;6.814;2023-04-08T15:01:01;14.00;98.20
4374;DHT22;2201;51.100;6.814;2023-04-08T15:03:28;13.90;98.20
4374;DHT22;2201;51.100;6.814;2023-04-08T15:05:55;13.70;98.20
4374;DHT22;2201;51.100;6.814;2023-04-08T15:08:23;13.70;98.20
4374;DHT22;2201;51.100;6.814;2023-04-08T15:10:50;13.60;98.20
4374;DHT22;2201;51.100;6.814;2023-04-08T15:13:18;13.50;98.20
4374;DHT22;2201;51.100;6.814;2023-04-08T15:15:45;13.40;98.20
4374;DHT22;2201;51.100;6.814;2023-04-08T15:18:11;13.30;98.20
4374;DHT22;2201;51.100;6.814;2023-04-08T15:20:38;13.20;98.20
4374;DHT22;2201;51.100;6.814;2023-04-08T15:23:06;13.20;98.20
4374;DHT22;2201;51.100;6.814;2023-04-08T15:25:32;13.10;98.20
4374;DHT22;2201;51.100;6.814;2023-04-08T15:27:59;13.10;98.20
4374;DHT22;2201;51.100;6.814;2023-04-08T15:30:28;13.10;98.20
4374;DHT22;2201;51.100;6.814;2023-04-08T15:33:00;13.00;98.20
4374;DHT22;2201;51.100;6.814;2023-04-08T15:35:27;13.00;98.20
4374;DHT22;2201;51.100;6.814;2023-04-08T15:37:54;13.10;98.20
4374;DHT22;2201;51.100;6.814;2023-04-08T15:40:21;13.10;98.20
4374;DHT22;2201;51.100;6.814;2023-04-08T15:42:48;13.20;98.20
4374;DHT22;2201;51.100;6.814;2023-04-08T15:45:15;13.20;98.20
4374;DHT22;2201;51.100;6.814;2023-04-08T15:47:43;13.20;98.20
4374;DHT22;2201;51.100;6.814;2023-04-08T15:50:10;13.20;98.20
4374;DHT22;2201;51.100;6.814;2023-04-08T15:52:37;13.30;98.20
4374;DHT22;2201;51.100;6.814;2023-04-08T15:55:05;13.30;98.20
4374;DHT22;2201;51.100;6.814;2023-04-08T15:57:32;13.30;98.20
4374;DHT22;2201;51.100;6.814;2023-04-08T16:00:00;13.30;98.20
4374;DHT22;2201;51.100;6.814;2023-04-08T16:02:28;13.20;98.20
4374;DHT22;2201;51.100;6.814;2023-04-08T16:04:56;13.10;98.20
4374;DHT22;2201;51.100;6.814;2023-04-08T16:07:22;13.00;98.20
4374;DHT22;2201;51.100;6.814;2023-04-08T16:09:49;12.90;98.20
4374;DHT22;2201;51.100;6.814;2023-04-08T16:12:16;12.90;98.20
4374;DHT22;2201;51.100;6.814;2023-04-08T16:14:44;12.90;98.20
4374;DHT22;2201;51.100;6.814;2023-04-08T16:17:11;12.90;98.20